Nuneaton, United Kingdom
Current Conditions -  °F | °C
As of 3:50 PM on Thursday 30 Oct 2014 (Local Time) from EGBE Reporting Station
Scattered Clouds Scattered Clouds  
Wind Chill: 63°   Ceiling: Unl
Heat Index: 63°   Visibility: 6mi
Dew Point: 59°   Wind: 8mph
Humidity: 88%   Direction: 190°S
Pressure: 30"   Gusts: NA
Location:  52.52°N, 1.47°W
Report Text: EGBE 301550Z 19007KT 160V220 9999 SCT020 SCT042 17/15 Q1016
Loading
Personal Weather Stations






























Interactive Weather Map
Tropical Storm Tracking
New forecast layout! Learn more

10-Day Weather Forecast

Advertisements
Track Severe Weather on mobile